sensor_id;sensor_type;location;lat;lon;timestamp;temperature;humidity
44305;DHT22;30019;50.576;8.568;2023-05-23T00:02:07;16.70;99.90
44305;DHT22;30019;50.576;8.568;2023-05-23T00:04:33;16.70;99.90
44305;DHT22;30019;50.576;8.568;2023-05-23T00:07:03;16.80;99.90
44305;DHT22;30019;50.576;8.568;2023-05-23T00:09:29;16.90;99.90
44305;DHT22;30019;50.576;8.568;2023-05-23T00:11:54;17.00;99.90
44305;DHT22;30019;50.576;8.568;2023-05-23T00:14:20;17.00;99.90
44305;DHT22;30019;50.576;8.568;2023-05-23T00:16:45;17.00;99.90
44305;DHT22;30019;50.576;8.568;2023-05-23T00:19:14;16.90;99.90
44305;DHT22;30019;50.576;8.568;2023-05-23T00:21:40;16.80;99.90
44305;DHT22;30019;50.576;8.568;2023-05-23T00:24:06;16.80;99.90
44305;DHT22;30019;50.576;8.568;2023-05-23T00:26:31;16.80;99.90
44305;DHT22;30019;50.576;8.568;2023-05-23T00:28:57;16.70;99.90
44305;DHT22;30019;50.576;8.568;2023-05-23T00:31:22;16.60;99.90
44305;DHT22;30019;50.576;8.568;2023-05-23T00:33:48;16.60;99.90
44305;DHT22;30019;50.576;8.568;2023-05-23T00:36:13;16.60;99.90
44305;DHT22;30019;50.576;8.568;2023-05-23T00:38:39;16.60;99.90
44305;DHT22;30019;50.576;8.568;2023-05-23T00:41:05;16.70;99.90
44305;DHT22;30019;50.576;8.568;2023-05-23T00:43:30;16.70;99.90
44305;DHT22;30019;50.576;8.568;2023-05-23T00:45:56;16.70;99.90
44305;DHT22;30019;50.576;8.568;2023-05-23T00:48:23;16.70;99.90
44305;DHT22;30019;50.576;8.568;2023-05-23T00:50:48;16.60;99.90
44305;DHT22;30019;50.576;8.568;2023-05-23T00:53:14;16.60;99.90
44305;DHT22;30019;50.576;8.568;2023-05-23T00:55:41;16.60;99.90
44305;DHT22;30019;50.576;8.568;2023-05-23T00:58:06;16.50;99.90
44305;DHT22;30019;50.576;8.568;2023-05-23T01:00:32;16.50;99.90
44305;DHT22;30019;50.576;8.568;2023-05-23T01:02:58;16.40;99.90
44305;DHT22;30019;50.576;8.568;2023-05-23T01:05:25;16.30;99.90
44305;DHT22;30019;50.576;8.568;2023-05-23T01:07:50;16.30;99.90
44305;DHT22;30019;50.576;8.568;2023-05-23T01:10:18;16.20;99.90
44305;DHT22;30019;50.576;8.568;2023-05-23T01:12:45;16.20;99.90
44305;DHT22;30019;50.576;8.568;2023-05-23T01:15:14;16.20;99.90
44305;DHT22;30019;50.576;8.568;2023-05-23T01:20:33;16.10;99.90
44305;DHT22;30019;50.576;8.568;2023-05-23T01:28:15;15.80;99.90
44305;DHT22;30019;50.576;8.568;2023-05-23T01:30:42;15.80;99.90
44305;DHT22;30019;50.576;8.568;2023-05-23T01:33:09;15.80;99.90
44305;DHT22;30019;50.576;8.568;2023-05-23T01:35:35;15.70;99.90
44305;DHT22;30019;50.576;8.568;2023-05-23T01:38:01;15.80;99.90
44305;DHT22;30019;50.576;8.568;2023-05-23T01:40:27;15.70;99.90
44305;DHT22;30019;50.576;8.568;2023-05-23T01:42:54;15.80;99.90
44305;DHT22;30019;50.576;8.568;2023-05-23T01:45:21;15.70;99.90
44305;DHT22;30019;50.576;8.568;2023-05-23T01:47:48;15.80;99.90
44305;DHT22;30019;50.576;8.568;2023-05-23T01:50:15;15.70;99.90
44305;DHT22;30019;50.576;8.568;2023-05-23T01:52:41;15.70;99.90
44305;DHT22;30019;50.576;8.568;2023-05-23T01:55:06;15.80;99.90
44305;DHT22;30019;50.576;8.568;2023-05-23T01:57:34;15.90;99.90
44305;DHT22;30019;50.576;8.568;2023-05-23T02:00:00;15.90;99.90
44305;DHT22;30019;50.576;8.568;2023-05-23T02:02:26;15.90;99.90
44305;DHT22;30019;50.576;8.568;2023-05-23T02:04:51;15.90;99.90
44305;DHT22;30019;50.576;8.568;2023-05-23T02:07:18;15.80;99.90
44305;DHT22;30019;50.576;8.568;2023-05-23T02:09:47;15.70;99.90
44305;DHT22;30019;50.576;8.568;2023-05-23T02:12:13;15.70;99.90
44305;DHT22;30019;50.576;8.568;2023-05-23T02:14:38;15.70;99.90
44305;DHT22;30019;50.576;8.568;2023-05-23T02:17:04;15.60;99.90
44305;DHT22;30019;50.576;8.568;2023-05-23T02:19:29;15.50;99.90
44305;DHT22;30019;50.576;8.568;2023-05-23T02:21:54;15.40;99.90
44305;DHT22;30019;50.576;8.568;2023-05-23T02:24:20;15.30;99.90
44305;DHT22;30019;50.576;8.568;2023-05-23T02:26:45;15.40;99.90
44305;DHT22;30019;50.576;8.568;2023-05-23T02:29:11;15.40;99.90
44305;DHT22;30019;50.576;8.568;2023-05-23T02:31:36;15.30;99.90
44305;DHT22;30019;50.576;8.568;2023-05-23T02:34:02;15.30;99.90
44305;DHT22;30019;50.576;8.568;2023-05-23T02:36:27;15.30;99.90
44305;DHT22;30019;50.576;8.568;2023-05-23T02:38:53;15.40;99.90
44305;DHT22;30019;50.576;8.568;2023-05-23T02:41:18;15.40;99.90
44305;DHT22;30019;50.576;8.568;2023-05-23T02:43:45;15.40;99.90
44305;DHT22;30019;50.576;8.568;2023-05-23T02:46:11;15.30;99.90
44305;DHT22;30019;50.576;8.568;2023-05-23T02:48:37;15.30;99.90
44305;DHT22;30019;50.576;8.568;2023-05-23T02:51:03;15.30;99.90
44305;DHT22;30019;50.576;8.568;2023-05-23T02:53:28;15.30;99.90
44305;DHT22;30019;50.576;8.568;2023-05-23T02:55:54;15.30;99.90
44305;DHT22;30019;50.576;8.568;2023-05-23T02:58:19;15.40;99.90
44305;DHT22;30019;50.576;8.568;2023-05-23T03:00:45;15.40;99.90
44305;DHT22;30019;50.576;8.568;2023-05-23T03:03:10;15.40;99.90
44305;DHT22;30019;50.576;8.568;2023-05-23T03:05:36;15.50;99.90
44305;DHT22;30019;50.576;8.568;2023-05-23T03:08:02;15.40;99.90
44305;DHT22;30019;50.576;8.568;2023-05-23T03:10:27;15.40;99.90
44305;DHT22;30019;50.576;8.568;2023-05-23T03:12:53;15.50;99.90
44305;DHT22;30019;50.576;8.568;2023-05-23T03:15:18;15.50;99.90
44305;DHT22;30019;50.576;8.568;2023-05-23T03:17:44;15.50;99.90
44305;DHT22;30019;50.576;8.568;2023-05-23T03:20:09;15.50;99.90
44305;DHT22;30019;50.576;8.568;2023-05-23T03:22:35;15.50;99.90
44305;DHT22;30019;50.576;8.568;2023-05-23T03:25:01;15.50;99.90
44305;DHT22;30019;50.576;8.568;2023-05-23T03:27:26;15.40;99.90
44305;DHT22;30019;50.576;8.568;2023-05-23T03:29:51;15.40;99.90
44305;DHT22;30019;50.576;8.568;2023-05-23T03:32:17;15.40;99.90
44305;DHT22;30019;50.576;8.568;2023-05-23T03:34:42;15.40;99.90
44305;DHT22;30019;50.576;8.568;2023-05-23T03:37:08;15.40;99.90
44305;DHT22;30019;50.576;8.568;2023-05-23T03:39:33;15.30;99.90
44305;DHT22;30019;50.576;8.568;2023-05-23T03:41:59;15.30;99.90
44305;DHT22;30019;50.576;8.568;2023-05-23T03:44:24;15.30;99.90
44305;DHT22;30019;50.576;8.568;2023-05-23T03:46:50;15.30;99.90
44305;DHT22;30019;50.576;8.568;2023-05-23T03:49:16;15.30;99.90
44305;DHT22;30019;50.576;8.568;2023-05-23T03:51:41;15.30;99.90
44305;DHT22;30019;50.576;8.568;2023-05-23T03:54:06;15.30;99.90
44305;DHT22;30019;50.576;8.568;2023-05-23T03:56:32;15.30;99.90
44305;DHT22;30019;50.576;8.568;2023-05-23T03:58:57;15.30;99.90
44305;DHT22;30019;50.576;8.568;2023-05-23T04:01:23;15.30;99.90
44305;DHT22;30019;50.576;8.568;2023-05-23T04:03:49;15.40;99.90
44305;DHT22;30019;50.576;8.568;2023-05-23T04:06:15;15.40;99.90
44305;DHT22;30019;50.576;8.568;2023-05-23T04:08:41;15.30;99.90
44305;DHT22;30019;50.576;8.568;2023-05-23T04:11:07;15.30;99.90
44305;DHT22;30019;50.576;8.568;2023-05-23T04:13:33;15.30;99.90
44305;DHT22;30019;50.576;8.568;2023-05-23T04:15:59;15.30;99.90
44305;DHT22;30019;50.576;8.568;2023-05-23T04:18:25;15.30;99.90
44305;DHT22;30019;50.576;8.568;2023-05-23T04:20:51;15.30;99.90
44305;DHT22;30019;50.576;8.568;2023-05-23T04:23:16;15.40;99.90
44305;DHT22;30019;50.576;8.568;2023-05-23T04:25:42;15.40;99.90
44305;DHT22;30019;50.576;8.568;2023-05-23T04:28:07;15.40;99.90
44305;DHT22;30019;50.576;8.568;2023-05-23T04:30:34;15.40;99.90
44305;DHT22;30019;50.576;8.568;2023-05-23T04:33:00;15.40;99.90
44305;DHT22;30019;50.576;8.568;2023-05-23T04:35:25;15.30;99.90
44305;DHT22;30019;50.576;8.568;2023-05-23T04:37:53;15.20;99.90
44305;DHT22;30019;50.576;8.568;2023-05-23T04:40:21;15.20;99.90
44305;DHT22;30019;50.576;8.568;2023-05-23T04:42:47;15.10;99.90
44305;DHT22;30019;50.576;8.568;2023-05-23T04:45:14;15.00;99.90
44305;DHT22;30019;50.576;8.568;2023-05-23T04:47:39;14.90;99.90
44305;DHT22;30019;50.576;8.568;2023-05-23T04:50:06;14.90;99.90
44305;DHT22;30019;50.576;8.568;2023-05-23T04:52:32;14.90;99.90
44305;DHT22;30019;50.576;8.568;2023-05-23T04:54:58;14.90;99.90
44305;DHT22;30019;50.576;8.568;2023-05-23T04:57:24;14.90;99.90
44305;DHT22;30019;50.576;8.568;2023-05-23T04:59:49;15.00;99.90
44305;DHT22;30019;50.576;8.568;2023-05-23T05:02:15;15.00;99.90
44305;DHT22;30019;50.576;8.568;2023-05-23T05:04:40;15.00;99.90
44305;DHT22;30019;50.576;8.568;2023-05-23T05:07:06;15.00;99.90
44305;DHT22;30019;50.576;8.568;2023-05-23T05:09:31;15.00;99.90
44305;DHT22;30019;50.576;8.568;2023-05-23T05:11:57;15.00;99.90
44305;DHT22;30019;50.576;8.568;2023-05-23T05:14:24;15.00;99.90
44305;DHT22;30019;50.576;8.568;2023-05-23T05:16:49;15.00;99.90
44305;DHT22;30019;50.576;8.568;2023-05-23T05:19:15;15.10;99.90
44305;DHT22;30019;50.576;8.568;2023-05-23T05:21:40;15.10;99.90
44305;DHT22;30019;50.576;8.568;2023-05-23T05:24:06;15.10;99.90
44305;DHT22;30019;50.576;8.568;2023-05-23T05:26:34;15.10;99.90
44305;DHT22;30019;50.576;8.568;2023-05-23T05:29:00;15.10;99.90
44305;DHT22;30019;50.576;8.568;2023-05-23T05:31:26;15.10;99.90
44305;DHT22;30019;50.576;8.568;2023-05-23T05:33:51;15.10;99.90
44305;DHT22;30019;50.576;8.568;2023-05-23T05:36:18;15.10;99.90
44305;DHT22;30019;50.576;8.568;2023-05-23T05:38:43;15.20;99.90
44305;DHT22;30019;50.576;8.568;2023-05-23T05:41:09;15.20;99.90
44305;DHT22;30019;50.576;8.568;2023-05-23T05:43:34;15.20;99.90
44305;DHT22;30019;50.576;8.568;2023-05-23T05:46:00;15.20;99.90
44305;DHT22;30019;50.576;8.568;2023-05-23T05:48:25;15.20;99.90
44305;DHT22;30019;50.576;8.568;2023-05-23T05:50:51;15.20;99.90
44305;DHT22;30019;50.576;8.568;2023-05-23T05:53:16;15.20;99.90
44305;DHT22;30019;50.576;8.568;2023-05-23T05:55:42;15.30;99.90
44305;DHT22;30019;50.576;8.568;2023-05-23T05:58:07;15.30;99.90
44305;DHT22;30019;50.576;8.568;2023-05-23T06:00:33;15.50;99.90
44305;DHT22;30019;50.576;8.568;2023-05-23T06:03:06;15.50;99.90
44305;DHT22;30019;50.576;8.568;2023-05-23T06:05:31;15.60;99.90
44305;DHT22;30019;50.576;8.568;2023-05-23T06:07:57;15.60;99.90
44305;DHT22;30019;50.576;8.568;2023-05-23T06:10:22;15.80;99.90
44305;DHT22;30019;50.576;8.568;2023-05-23T06:12:48;16.00;99.90
44305;DHT22;30019;50.576;8.568;2023-05-23T06:15:14;16.00;99.90
44305;DHT22;30019;50.576;8.568;2023-05-23T06:17:40;16.10;99.90
44305;DHT22;30019;50.576;8.568;2023-05-23T06:20:06;16.10;99.90
44305;DHT22;30019;50.576;8.568;2023-05-23T06:22:32;16.10;99.90
44305;DHT22;30019;50.576;8.568;2023-05-23T06:24:57;16.20;99.90
44305;DHT22;30019;50.576;8.568;2023-05-23T06:27:23;16.10;99.90
44305;DHT22;30019;50.576;8.568;2023-05-23T06:29:48;16.10;99.90
44305;DHT22;30019;50.576;8.568;2023-05-23T06:32:14;16.10;99.90
44305;DHT22;30019;50.576;8.568;2023-05-23T06:34:39;16.10;99.90
44305;DHT22;30019;50.576;8.568;2023-05-23T06:37:05;16.00;99.90
44305;DHT22;30019;50.576;8.568;2023-05-23T06:39:30;15.80;99.90
44305;DHT22;30019;50.576;8.568;2023-05-23T06:41:56;15.70;99.90
44305;DHT22;30019;50.576;8.568;2023-05-23T06:44:21;15.80;99.90
44305;DHT22;30019;50.576;8.568;2023-05-23T06:46:47;15.90;99.90
44305;DHT22;30019;50.576;8.568;2023-05-23T06:49:12;15.90;99.90
44305;DHT22;30019;50.576;8.568;2023-05-23T06:51:38;15.80;99.90
44305;DHT22;30019;50.576;8.568;2023-05-23T06:54:03;15.70;99.90
44305;DHT22;30019;50.576;8.568;2023-05-23T06:56:29;15.70;99.90
44305;DHT22;30019;50.576;8.568;2023-05-23T06:58:54;15.60;99.90
44305;DHT22;30019;50.576;8.568;2023-05-23T07:01:20;15.60;99.90
44305;DHT22;30019;50.576;8.568;2023-05-23T07:03:45;15.60;99.90
44305;DHT22;30019;50.576;8.568;2023-05-23T07:06:11;15.50;99.90
44305;DHT22;30019;50.576;8.568;2023-05-23T07:08:36;15.50;99.90
44305;DHT22;30019;50.576;8.568;2023-05-23T07:11:02;15.50;99.90
44305;DHT22;30019;50.576;8.568;2023-05-23T07:13:27;15.50;99.90
44305;DHT22;30019;50.576;8.568;2023-05-23T07:15:53;15.60;99.90
44305;DHT22;30019;50.576;8.568;2023-05-23T07:18:18;15.60;99.90
44305;DHT22;30019;50.576;8.568;2023-05-23T07:20:44;15.60;99.90
44305;DHT22;30019;50.576;8.568;2023-05-23T07:23:09;15.70;99.90
44305;DHT22;30019;50.576;8.568;2023-05-23T07:25:35;15.90;99.90
44305;DHT22;30019;50.576;8.568;2023-05-23T07:28:01;16.10;99.90
44305;DHT22;30019;50.576;8.568;2023-05-23T07:30:26;16.10;99.90
44305;DHT22;30019;50.576;8.568;2023-05-23T07:32:51;16.30;99.90
44305;DHT22;30019;50.576;8.568;2023-05-23T07:35:17;16.60;99.90
44305;DHT22;30019;50.576;8.568;2023-05-23T07:37:48;16.60;99.90
44305;DHT22;30019;50.576;8.568;2023-05-23T07:40:13;16.70;99.90
44305;DHT22;30019;50.576;8.568;2023-05-23T07:42:39;16.70;99.90
44305;DHT22;30019;50.576;8.568;2023-05-23T07:45:04;16.70;99.90
44305;DHT22;30019;50.576;8.568;2023-05-23T07:47:30;16.90;99.90
44305;DHT22;30019;50.576;8.568;2023-05-23T07:49:55;17.10;99.90
44305;DHT22;30019;50.576;8.568;2023-05-23T07:52:21;17.10;99.90
44305;DHT22;30019;50.576;8.568;2023-05-23T07:54:46;17.10;99.90
44305;DHT22;30019;50.576;8.568;2023-05-23T07:57:12;16.90;99.90
44305;DHT22;30019;50.576;8.568;2023-05-23T07:59:39;16.80;99.90
44305;DHT22;30019;50.576;8.568;2023-05-23T08:02:05;16.80;99.90
44305;DHT22;30019;50.576;8.568;2023-05-23T08:04:31;16.70;99.90
44305;DHT22;30019;50.576;8.568;2023-05-23T08:06:56;16.70;99.90
44305;DHT22;30019;50.576;8.568;2023-05-23T08:09:22;16.70;99.90
44305;DHT22;30019;50.576;8.568;2023-05-23T08:11:47;16.70;99.90
44305;DHT22;30019;50.576;8.568;2023-05-23T08:14:13;16.60;99.90
44305;DHT22;30019;50.576;8.568;2023-05-23T08:16:38;16.50;99.90
44305;DHT22;30019;50.576;8.568;2023-05-23T08:19:04;16.50;99.90
44305;DHT22;30019;50.576;8.568;2023-05-23T08:21:29;16.50;99.90
44305;DHT22;30019;50.576;8.568;2023-05-23T08:23:56;16.60;99.90
44305;DHT22;30019;50.576;8.568;2023-05-23T08:26:21;16.70;99.90
44305;DHT22;30019;50.576;8.568;2023-05-23T08:28:47;16.80;99.90
44305;DHT22;30019;50.576;8.568;2023-05-23T08:31:12;16.70;99.90
44305;DHT22;30019;50.576;8.568;2023-05-23T08:33:38;16.70;99.90
44305;DHT22;30019;50.576;8.568;2023-05-23T08:36:04;16.80;99.90
44305;DHT22;30019;50.576;8.568;2023-05-23T08:38:29;16.80;99.90
44305;DHT22;30019;50.576;8.568;2023-05-23T08:40:56;16.90;99.90
44305;DHT22;30019;50.576;8.568;2023-05-23T08:43:24;17.00;99.90
44305;DHT22;30019;50.576;8.568;2023-05-23T08:45:50;16.90;99.90
44305;DHT22;30019;50.576;8.568;2023-05-23T08:48:16;16.90;99.90
44305;DHT22;30019;50.576;8.568;2023-05-23T08:50:44;16.90;99.90
44305;DHT22;30019;50.576;8.568;2023-05-23T08:53:11;16.80;99.90
44305;DHT22;30019;50.576;8.568;2023-05-23T08:55:44;16.70;99.90
44305;DHT22;30019;50.576;8.568;2023-05-23T08:58:10;16.60;99.90
44305;DHT22;30019;50.576;8.568;2023-05-23T09:00:37;16.50;99.90
44305;DHT22;30019;50.576;8.568;2023-05-23T09:03:03;16.30;99.90
44305;DHT22;30019;50.576;8.568;2023-05-23T09:05:28;16.30;99.90
44305;DHT22;30019;50.576;8.568;2023-05-23T09:07:54;16.20;99.90
44305;DHT22;30019;50.576;8.568;2023-05-23T09:10:21;16.20;99.90
44305;DHT22;30019;50.576;8.568;2023-05-23T09:12:46;16.30;99.90
44305;DHT22;30019;50.576;8.568;2023-05-23T09:15:12;16.30;99.90
44305;DHT22;30019;50.576;8.568;2023-05-23T09:17:38;16.40;99.90
44305;DHT22;30019;50.576;8.568;2023-05-23T09:20:09;16.50;99.90
44305;DHT22;30019;50.576;8.568;2023-05-23T09:22:36;16.70;99.90
44305;DHT22;30019;50.576;8.568;2023-05-23T09:25:01;17.00;99.90
44305;DHT22;30019;50.576;8.568;2023-05-23T09:27:27;17.00;99.90
44305;DHT22;30019;50.576;8.568;2023-05-23T09:29:52;17.10;99.90
44305;DHT22;30019;50.576;8.568;2023-05-23T09:32:19;17.30;99.90
44305;DHT22;30019;50.576;8.568;2023-05-23T09:34:55;17.40;99.90
44305;DHT22;30019;50.576;8.568;2023-05-23T09:37:21;17.40;99.90
44305;DHT22;30019;50.576;8.568;2023-05-23T09:39:49;17.30;99.90
44305;DHT22;30019;50.576;8.568;2023-05-23T09:42:19;17.30;99.90
44305;DHT22;30019;50.576;8.568;2023-05-23T09:44:45;17.30;99.90
44305;DHT22;30019;50.576;8.568;2023-05-23T09:47:10;17.40;99.90
44305;DHT22;30019;50.576;8.568;2023-05-23T09:49:37;17.40;99.90
44305;DHT22;30019;50.576;8.568;2023-05-23T09:52:03;17.20;99.90
44305;DHT22;30019;50.576;8.568;2023-05-23T09:54:28;17.10;99.90
44305;DHT22;30019;50.576;8.568;2023-05-23T09:56:54;17.00;99.90
44305;DHT22;30019;50.576;8.568;2023-05-23T09:59:21;16.90;99.90
44305;DHT22;30019;50.576;8.568;2023-05-23T10:01:50;16.70;99.90
44305;DHT22;30019;50.576;8.568;2023-05-23T10:04:20;16.80;99.90
44305;DHT22;30019;50.576;8.568;2023-05-23T10:06:50;16.70;99.90
44305;DHT22;30019;50.576;8.568;2023-05-23T10:09:18;16.70;99.90
44305;DHT22;30019;50.576;8.568;2023-05-23T10:14:22;16.70;99.90
44305;DHT22;30019;50.576;8.568;2023-05-23T10:19:22;16.70;99.90
44305;DHT22;30019;50.576;8.568;2023-05-23T10:21:51;16.70;99.90
44305;DHT22;30019;50.576;8.568;2023-05-23T10:24:19;16.60;99.90
44305;DHT22;30019;50.576;8.568;2023-05-23T10:26:45;16.80;99.90
44305;DHT22;30019;50.576;8.568;2023-05-23T10:29:12;17.00;99.90
44305;DHT22;30019;50.576;8.568;2023-05-23T10:31:37;17.10;99.90
44305;DHT22;30019;50.576;8.568;2023-05-23T10:36:44;17.20;99.90
44305;DHT22;30019;50.576;8.568;2023-05-23T10:39:30;17.30;99.90
44305;DHT22;30019;50.576;8.568;2023-05-23T10:42:03;17.60;99.90
44305;DHT22;30019;50.576;8.568;2023-05-23T10:44:32;17.70;99.90
44305;DHT22;30019;50.576;8.568;2023-05-23T10:46:59;17.70;99.90
44305;DHT22;30019;50.576;8.568;2023-05-23T10:49:41;17.40;99.90
44305;DHT22;30019;50.576;8.568;2023-05-23T10:52:09;17.30;99.90
44305;DHT22;30019;50.576;8.568;2023-05-23T10:54:35;17.10;99.90
44305;DHT22;30019;50.576;8.568;2023-05-23T10:57:02;17.30;99.90
44305;DHT22;30019;50.576;8.568;2023-05-23T10:59:28;17.90;99.90
44305;DHT22;30019;50.576;8.568;2023-05-23T11:01:54;18.40;99.90
44305;DHT22;30019;50.576;8.568;2023-05-23T11:04:29;18.30;99.90
44305;DHT22;30019;50.576;8.568;2023-05-23T11:06:55;18.20;99.90
44305;DHT22;30019;50.576;8.568;2023-05-23T11:09:21;18.20;99.90
44305;DHT22;30019;50.576;8.568;2023-05-23T11:14:20;18.00;99.90
44305;DHT22;30019;50.576;8.568;2023-05-23T11:16:55;18.30;99.90
44305;DHT22;30019;50.576;8.568;2023-05-23T11:19:24;18.30;99.90
44305;DHT22;30019;50.576;8.568;2023-05-23T11:21:52;18.80;99.90
44305;DHT22;30019;50.576;8.568;2023-05-23T11:24:18;18.70;99.90
44305;DHT22;30019;50.576;8.568;2023-05-23T11:29:19;18.30;99.90
44305;DHT22;30019;50.576;8.568;2023-05-23T11:31:44;18.30;99.90
44305;DHT22;30019;50.576;8.568;2023-05-23T11:34:10;18.20;99.90
44305;DHT22;30019;50.576;8.568;2023-05-23T11:36:36;18.20;99.90
44305;DHT22;30019;50.576;8.568;2023-05-23T11:39:02;18.30;99.90
44305;DHT22;30019;50.576;8.568;2023-05-23T11:41:30;18.30;99.90
44305;DHT22;30019;50.576;8.568;2023-05-23T11:43:57;18.00;99.90
44305;DHT22;30019;50.576;8.568;2023-05-23T11:46:23;17.70;99.90
44305;DHT22;30019;50.576;8.568;2023-05-23T11:48:49;17.60;99.90
44305;DHT22;30019;50.576;8.568;2023-05-23T11:51:15;17.70;99.90
44305;DHT22;30019;50.576;8.568;2023-05-23T11:53:41;18.10;99.90
44305;DHT22;30019;50.576;8.568;2023-05-23T11:56:07;18.80;99.90
44305;DHT22;30019;50.576;8.568;2023-05-23T11:58:36;19.20;99.90
44305;DHT22;30019;50.576;8.568;2023-05-23T12:01:06;19.00;99.90
44305;DHT22;30019;50.576;8.568;2023-05-23T12:03:44;19.10;99.90
44305;DHT22;30019;50.576;8.568;2023-05-23T12:06:14;19.70;99.90
44305;DHT22;30019;50.576;8.568;2023-05-23T12:08:40;19.30;99.90
44305;DHT22;30019;50.576;8.568;2023-05-23T12:11:05;18.90;99.90
44305;DHT22;30019;50.576;8.568;2023-05-23T12:13:31;18.90;99.90
44305;DHT22;30019;50.576;8.568;2023-05-23T12:16:00;18.50;99.90
44305;DHT22;30019;50.576;8.568;2023-05-23T12:18:27;18.30;99.90
44305;DHT22;30019;50.576;8.568;2023-05-23T12:20:53;18.10;99.90
44305;DHT22;30019;50.576;8.568;2023-05-23T12:23:21;18.30;99.90
44305;DHT22;30019;50.576;8.568;2023-05-23T12:25:53;18.70;99.90
44305;DHT22;30019;50.576;8.568;2023-05-23T12:28:20;18.70;99.90
44305;DHT22;30019;50.576;8.568;2023-05-23T12:30:45;18.40;99.90
44305;DHT22;30019;50.576;8.568;2023-05-23T12:33:11;18.10;99.90
44305;DHT22;30019;50.576;8.568;2023-05-23T12:35:36;17.80;99.90
44305;DHT22;30019;50.576;8.568;2023-05-23T12:38:05;17.80;99.90
44305;DHT22;30019;50.576;8.568;2023-05-23T12:40:31;17.60;99.90
44305;DHT22;30019;50.576;8.568;2023-05-23T12:42:57;17.70;99.90
44305;DHT22;30019;50.576;8.568;2023-05-23T12:45:23;18.40;99.90
44305;DHT22;30019;50.576;8.568;2023-05-23T12:47:49;18.60;99.90
44305;DHT22;30019;50.576;8.568;2023-05-23T12:50:15;18.10;99.90
44305;DHT22;30019;50.576;8.568;2023-05-23T12:52:40;18.00;99.90
44305;DHT22;30019;50.576;8.568;2023-05-23T12:55:06;18.20;99.90
44305;DHT22;30019;50.576;8.568;2023-05-23T12:57:33;18.00;99.90
44305;DHT22;30019;50.576;8.568;2023-05-23T12:59:58;18.10;99.90
44305;DHT22;30019;50.576;8.568;2023-05-23T13:02:24;18.10;99.90
44305;DHT22;30019;50.576;8.568;2023-05-23T13:04:50;17.90;99.90
44305;DHT22;30019;50.576;8.568;2023-05-23T13:07:15;17.70;99.90
44305;DHT22;30019;50.576;8.568;2023-05-23T13:09:41;17.60;99.90
44305;DHT22;30019;50.576;8.568;2023-05-23T13:12:07;17.50;99.90
44305;DHT22;30019;50.576;8.568;2023-05-23T13:14:33;17.40;99.90
44305;DHT22;30019;50.576;8.568;2023-05-23T13:16:58;17.30;99.90
44305;DHT22;30019;50.576;8.568;2023-05-23T13:19:24;17.30;99.90
44305;DHT22;30019;50.576;8.568;2023-05-23T13:21:49;17.10;99.90
44305;DHT22;30019;50.576;8.568;2023-05-23T13:24:15;17.10;99.90
44305;DHT22;30019;50.576;8.568;2023-05-23T13:26:41;17.10;99.90
44305;DHT22;30019;50.576;8.568;2023-05-23T13:29:06;17.10;99.90
44305;DHT22;30019;50.576;8.568;2023-05-23T13:31:32;17.00;99.90
44305;DHT22;30019;50.576;8.568;2023-05-23T13:33:57;17.00;99.90
44305;DHT22;30019;50.576;8.568;2023-05-23T13:36:23;17.00;99.90
44305;DHT22;30019;50.576;8.568;2023-05-23T13:38:49;17.10;99.90
44305;DHT22;30019;50.576;8.568;2023-05-23T13:41:15;17.30;99.90
44305;DHT22;30019;50.576;8.568;2023-05-23T13:43:41;17.50;99.90
44305;DHT22;30019;50.576;8.568;2023-05-23T13:46:06;17.50;99.90
44305;DHT22;30019;50.576;8.568;2023-05-23T13:48:31;17.40;99.90
44305;DHT22;30019;50.576;8.568;2023-05-23T13:50:57;17.30;99.90
44305;DHT22;30019;50.576;8.568;2023-05-23T13:53:23;17.00;99.90
44305;DHT22;30019;50.576;8.568;2023-05-23T13:55:48;17.00;99.90
44305;DHT22;30019;50.576;8.568;2023-05-23T13:58:14;17.00;99.90
44305;DHT22;30019;50.576;8.568;2023-05-23T14:00:39;16.90;99.90
44305;DHT22;30019;50.576;8.568;2023-05-23T14:03:05;16.90;99.90
44305;DHT22;30019;50.576;8.568;2023-05-23T14:05:31;16.80;99.90
44305;DHT22;30019;50.576;8.568;2023-05-23T14:07:56;16.90;99.90
44305;DHT22;30019;50.576;8.568;2023-05-23T14:10:22;16.90;99.90
44305;DHT22;30019;50.576;8.568;2023-05-23T14:12:47;17.10;99.90
44305;DHT22;30019;50.576;8.568;2023-05-23T14:15:13;16.90;99.90
44305;DHT22;30019;50.576;8.568;2023-05-23T14:17:38;16.80;99.90
44305;DHT22;30019;50.576;8.568;2023-05-23T14:20:04;16.90;99.90
44305;DHT22;30019;50.576;8.568;2023-05-23T14:22:30;17.00;99.90
44305;DHT22;30019;50.576;8.568;2023-05-23T14:24:56;17.20;99.90
44305;DHT22;30019;50.576;8.568;2023-05-23T14:27:22;17.50;99.90
44305;DHT22;30019;50.576;8.568;2023-05-23T14:29:47;17.40;99.90
44305;DHT22;30019;50.576;8.568;2023-05-23T14:32:13;17.20;99.90
44305;DHT22;30019;50.576;8.568;2023-05-23T14:34:39;17.10;99.90
44305;DHT22;30019;50.576;8.568;2023-05-23T14:37:05;16.80;99.90
44305;DHT22;30019;50.576;8.568;2023-05-23T14:39:30;16.50;99.90
44305;DHT22;30019;50.576;8.568;2023-05-23T14:41:56;16.70;99.90
44305;DHT22;30019;50.576;8.568;2023-05-23T14:44:21;16.80;99.90
44305;DHT22;30019;50.576;8.568;2023-05-23T14:46:47;16.90;99.90
44305;DHT22;30019;50.576;8.568;2023-05-23T14:49:14;17.00;99.90
44305;DHT22;30019;50.576;8.568;2023-05-23T14:51:40;16.90;99.90
44305;DHT22;30019;50.576;8.568;2023-05-23T14:54:05;16.30;99.90
44305;DHT22;30019;50.576;8.568;2023-05-23T14:56:31;15.90;99.90
44305;DHT22;30019;50.576;8.568;2023-05-23T14:58:57;15.60;99.90
44305;DHT22;30019;50.576;8.568;2023-05-23T15:01:22;15.50;99.90
44305;DHT22;30019;50.576;8.568;2023-05-23T15:03:48;15.50;99.90
44305;DHT22;30019;50.576;8.568;2023-05-23T15:06:13;15.60;99.90
44305;DHT22;30019;50.576;8.568;2023-05-23T15:08:39;15.60;99.90
44305;DHT22;30019;50.576;8.568;2023-05-23T15:11:05;15.80;99.90
44305;DHT22;30019;50.576;8.568;2023-05-23T15:13:30;16.00;99.90
44305;DHT22;30019;50.576;8.568;2023-05-23T15:15:56;16.00;99.90
44305;DHT22;30019;50.576;8.568;2023-05-23T15:18:22;16.10;99.90
44305;DHT22;30019;50.576;8.568;2023-05-23T15:20:47;16.10;99.90
44305;DHT22;30019;50.576;8.568;2023-05-23T15:23:12;15.90;99.90
44305;DHT22;30019;50.576;8.568;2023-05-23T15:25:38;15.90;99.90
44305;DHT22;30019;50.576;8.568;2023-05-23T15:28:03;15.90;99.90
44305;DHT22;30019;50.576;8.568;2023-05-23T15:30:29;15.70;99.90
44305;DHT22;30019;50.576;8.568;2023-05-23T15:32:54;15.70;99.90
44305;DHT22;30019;50.576;8.568;2023-05-23T15:35:20;15.60;99.90
44305;DHT22;30019;50.576;8.568;2023-05-23T15:37:45;15.50;99.90
44305;DHT22;30019;50.576;8.568;2023-05-23T15:40:12;15.50;99.90
44305;DHT22;30019;50.576;8.568;2023-05-23T15:42:37;15.50;99.90
44305;DHT22;30019;50.576;8.568;2023-05-23T15:45:03;15.50;99.90